Time;durP1;ratioP1;P1;durP2;ratioP2;P2;SDS_P1;SDS_P2;PMS_P1;PMS_P2;Temp;Humidity;BMP_temperature;BMP_pressure;BME280_temperature;BME280_humidity;BME280_pressure;Samples;Min_cycle;Max_cycle;Signal;HPM_P1;HPM_P2
2024/02/29 00:00:18;;;;;;;2.25;0.95;;;11.20;99.90;;;;;;5032806;28;20474;-62
2024/02/29 00:02:45;;;;;;;3.85;0.82;;;11.20;99.90;;;;;;5033804;28;20041;-62
2024/02/29 00:05:12;;;;;;;3.78;1.00;;;11.20;99.90;;;;;;5033574;28;20038;-62
2024/02/29 00:07:39;;;;;;;2.50;1.13;;;11.20;99.90;;;;;;5033536;28;20068;-62
2024/02/29 00:10:06;;;;;;;2.55;0.85;;;11.20;99.90;;;;;;5033417;28;20574;-62
2024/02/29 00:12:33;;;;;;;3.63;1.30;;;11.30;99.90;;;;;;5033707;28;20463;-62
2024/02/29 00:15:00;;;;;;;5.13;1.10;;;11.20;99.90;;;;;;5033266;28;20054;-62
2024/02/29 00:17:27;;;;;;;4.03;1.30;;;11.20;99.90;;;;;;5033273;28;20096;-62
2024/02/29 00:19:54;;;;;;;5.53;2.30;;;11.20;99.90;;;;;;5033534;28;20065;-62
2024/02/29 00:22:20;;;;;;;5.22;1.35;;;11.20;99.90;;;;;;5033500;28;20041;-62
2024/02/29 00:24:47;;;;;;;2.47;1.45;;;11.20;99.90;;;;;;5033491;28;20502;-62
2024/02/29 00:27:14;;;;;;;4.18;1.17;;;11.20;99.90;;;;;;5033665;28;20513;-62
2024/02/29 00:29:41;;;;;;;3.28;1.52;;;11.20;99.90;;;;;;5033783;28;20097;-62
2024/02/29 00:32:08;;;;;;;3.00;1.23;;;11.20;99.90;;;;;;5033316;28;20046;-62
2024/02/29 00:34:35;;;;;;;3.97;1.40;;;11.20;99.90;;;;;;5033271;28;20057;-62
2024/02/29 00:37:01;;;;;;;4.32;1.30;;;11.20;99.90;;;;;;5033170;28;20046;-62
2024/02/29 00:39:28;;;;;;;5.28;1.73;;;11.20;99.90;;;;;;5033226;28;20367;-62
2024/02/29 00:41:55;;;;;;;7.38;1.80;;;11.20;99.90;;;;;;5033534;28;20041;-62
2024/02/29 00:44:22;;;;;;;4.90;1.40;;;11.20;99.90;;;;;;5033552;28;20451;-62
2024/02/29 00:46:49;;;;;;;4.10;1.42;;;11.10;99.90;;;;;;5035851;28;20049;-62
2024/02/29 00:49:15;;;;;;;3.97;1.48;;;11.20;99.90;;;;;;5036799;28;20037;-62
2024/02/29 00:51:42;;;;;;;5.55;1.58;;;11.20;99.90;;;;;;5035319;28;20045;-62
2024/02/29 00:54:09;;;;;;;7.43;1.58;;;11.20;99.90;;;;;;5036179;28;20120;-62
2024/02/29 00:56:36;;;;;;;4.20;1.50;;;11.10;99.90;;;;;;5036403;28;20121;-62
2024/02/29 00:59:03;;;;;;;4.55;1.65;;;11.10;99.90;;;;;;5034886;28;20490;-62
2024/02/29 01:01:30;;;;;;;6.38;1.67;;;11.10;99.90;;;;;;5034183;28;20124;-63
2024/02/29 01:03:56;;;;;;;4.25;1.50;;;11.10;99.90;;;;;;5033903;28;20045;-64
2024/02/29 01:06:23;;;;;;;5.22;1.25;;;11.10;99.90;;;;;;5032844;28;20092;-63
2024/02/29 01:08:50;;;;;;;4.75;1.20;;;11.10;99.90;;;;;;5032954;28;20045;-63
2024/02/29 01:11:17;;;;;;;7.50;1.70;;;11.10;99.90;;;;;;5032788;28;20048;-63
2024/02/29 01:13:44;;;;;;;4.38;1.30;;;11.10;99.90;;;;;;5036735;28;20133;-63
2024/02/29 01:16:11;;;;;;;4.85;1.45;;;11.10;99.90;;;;;;5036350;28;20061;-64
2024/02/29 01:18:40;;;;;;;4.72;1.15;;;11.10;99.90;;;;;;5036294;28;20045;-63
2024/02/29 01:21:07;;;;;;;6.30;1.25;;;11.10;99.90;;;;;;5036418;28;20145;-63
2024/02/29 01:23:33;;;;;;;5.95;1.75;;;11.10;99.90;;;;;;5036343;28;20046;-63
2024/02/29 01:26:00;;;;;;;5.55;1.20;;;11.10;99.90;;;;;;5036439;28;20055;-63
2024/02/29 01:28:27;;;;;;;4.75;1.20;;;11.10;99.90;;;;;;5036465;28;20045;-63
2024/02/29 01:30:54;;;;;;;4.57;1.40;;;11.10;99.90;;;;;;5036479;28;20423;-63
2024/02/29 01:33:21;;;;;;;6.18;1.33;;;11.10;99.90;;;;;;5036333;28;20038;-63
2024/02/29 01:35:47;;;;;;;4.13;1.30;;;11.10;99.90;;;;;;5034931;28;20368;-63
2024/02/29 01:38:14;;;;;;;3.28;0.93;;;11.10;99.90;;;;;;5036253;28;20049;-63
2024/02/29 01:40:41;;;;;;;4.65;1.30;;;11.10;99.90;;;;;;5034840;28;20041;-63
2024/02/29 01:43:08;;;;;;;4.50;0.80;;;11.10;99.90;;;;;;5035621;28;20049;-63
2024/02/29 01:45:34;;;;;;;3.22;0.88;;;11.10;99.90;;;;;;5035409;28;20077;-63
2024/02/29 01:48:01;;;;;;;3.42;0.82;;;11.10;99.90;;;;;;5033587;28;20136;-63
2024/02/29 01:50:28;;;;;;;2.42;0.80;;;11.00;99.90;;;;;;5036078;28;20120;-63
2024/02/29 01:52:55;;;;;;;3.92;1.08;;;11.00;99.90;;;;;;5035668;28;20092;-63
2024/02/29 01:55:22;;;;;;;3.83;1.00;;;11.00;99.90;;;;;;5035609;28;20045;-63
2024/02/29 01:57:48;;;;;;;3.67;0.90;;;11.00;99.90;;;;;;5034838;28;20042;-63
2024/02/29 02:00:15;;;;;;;4.00;1.05;;;11.00;99.90;;;;;;5035969;28;20042;-63
2024/02/29 02:02:42;;;;;;;4.07;0.95;;;11.00;99.90;;;;;;5036117;28;20052;-63
2024/02/29 02:05:09;;;;;;;3.45;1.02;;;11.00;99.90;;;;;;5036180;28;20052;-62
2024/02/29 02:07:36;;;;;;;3.33;0.93;;;11.10;99.90;;;;;;5036017;28;20050;-61
2024/02/29 02:10:03;;;;;;;5.97;1.10;;;11.00;99.90;;;;;;5036173;28;20128;-62
2024/02/29 02:12:29;;;;;;;5.07;1.10;;;11.10;99.90;;;;;;5035803;28;20046;-62
2024/02/29 02:14:57;;;;;;;5.00;0.80;;;11.00;99.90;;;;;;5035433;28;20057;-63
2024/02/29 02:17:23;;;;;;;5.70;0.93;;;11.10;99.90;;;;;;5035501;28;20053;-62
2024/02/29 02:19:50;;;;;;;5.55;1.10;;;11.00;99.90;;;;;;5035679;28;20467;-62
2024/02/29 02:22:17;;;;;;;4.82;0.90;;;11.00;99.90;;;;;;5035609;28;20152;-62
2024/02/29 02:24:44;;;;;;;3.33;0.88;;;11.00;99.90;;;;;;5034827;28;20045;-63
2024/02/29 02:27:11;;;;;;;4.03;1.00;;;11.00;99.90;;;;;;5035534;28;20111;-63
2024/02/29 02:29:38;;;;;;;6.75;1.08;;;11.00;99.90;;;;;;5035684;28;20060;-63
2024/02/29 02:32:06;;;;;;;3.92;0.75;;;10.90;99.90;;;;;;5035331;28;20045;-63
2024/02/29 02:34:33;;;;;;;5.53;1.15;;;10.90;99.90;;;;;;5035425;28;20080;-62
2024/02/29 02:37:00;;;;;;;6.93;1.25;;;10.90;99.90;;;;;;5035465;28;20048;-62
2024/02/29 02:39:27;;;;;;;3.95;1.00;;;10.90;99.90;;;;;;5035262;28;20044;-62
2024/02/29 02:41:53;;;;;;;4.68;0.93;;;10.90;99.90;;;;;;5035069;28;20041;-63
2024/02/29 02:44:20;;;;;;;6.05;1.20;;;10.90;99.90;;;;;;5035463;28;20073;-63
2024/02/29 02:46:47;;;;;;;2.28;0.80;;;10.90;99.90;;;;;;5035150;28;20072;-62
2024/02/29 02:49:15;;;;;;;5.65;1.00;;;10.90;99.90;;;;;;5035249;28;20447;-62
2024/02/29 02:51:42;;;;;;;5.22;1.10;;;10.90;99.90;;;;;;5035113;28;20084;-62
2024/02/29 02:54:09;;;;;;;5.72;1.13;;;10.90;99.90;;;;;;5034958;28;20052;-63
2024/02/29 02:56:36;;;;;;;6.43;1.08;;;10.90;99.90;;;;;;5034705;28;20092;-63
2024/02/29 02:59:02;;;;;;;2.88;0.80;;;10.80;99.90;;;;;;5034760;28;20047;-63
2024/02/29 03:01:29;;;;;;;3.33;0.80;;;10.80;99.90;;;;;;5035116;28;20041;-63
2024/02/29 03:03:56;;;;;;;6.38;1.45;;;10.90;99.90;;;;;;5034993;28;20390;-63
2024/02/29 03:06:23;;;;;;;7.03;1.25;;;10.80;99.90;;;;;;5034280;28;20042;-63
2024/02/29 03:08:50;;;;;;;6.43;1.00;;;10.90;99.90;;;;;;5035089;28;20041;-63
2024/02/29 03:11:17;;;;;;;5.25;1.00;;;10.90;99.90;;;;;;5034543;28;20045;-63
2024/02/29 03:13:43;;;;;;;8.32;1.15;;;10.90;99.90;;;;;;5034636;28;20045;-62
2024/02/29 03:16:10;;;;;;;4.35;0.90;;;10.90;99.90;;;;;;5034282;28;20057;-63
2024/02/29 03:18:37;;;;;;;8.68;1.58;;;10.90;99.90;;;;;;5034388;28;20501;-63
2024/02/29 03:21:05;;;;;;;9.23;1.33;;;10.90;99.90;;;;;;5034848;28;20048;-62
2024/02/29 03:23:31;;;;;;;8.13;1.42;;;10.90;99.90;;;;;;5034359;28;20120;-63
2024/02/29 03:25:58;;;;;;;7.03;1.38;;;10.90;99.90;;;;;;5034579;28;20052;-62
2024/02/29 03:28:25;;;;;;;5.68;1.23;;;10.90;99.90;;;;;;5034418;28;20171;-62
2024/02/29 03:30:53;;;;;;;7.22;1.70;;;10.90;99.90;;;;;;5034270;28;20046;-63
2024/02/29 03:33:20;;;;;;;6.63;1.10;;;10.90;99.90;;;;;;5034740;28;20513;-63
2024/02/29 03:35:46;;;;;;;7.35;1.40;;;10.80;99.90;;;;;;5033033;28;20049;-62
2024/02/29 03:38:14;;;;;;;8.52;1.30;;;10.80;99.90;;;;;;5032849;28;20433;-63
2024/02/29 03:40:40;;;;;;;8.02;1.70;;;10.80;99.90;;;;;;5033859;28;20038;-63
2024/02/29 03:43:07;;;;;;;8.63;1.60;;;10.80;99.90;;;;;;5033899;28;20030;-62
2024/02/29 03:45:34;;;;;;;7.72;1.27;;;10.80;99.90;;;;;;5034030;28;20049;-63
2024/02/29 03:48:01;;;;;;;6.93;1.35;;;10.80;99.90;;;;;;5034021;28;20646;-63
2024/02/29 03:50:28;;;;;;;7.47;1.60;;;10.80;99.90;;;;;;5033969;28;20042;-63
2024/02/29 03:52:55;;;;;;;9.45;1.63;;;10.80;99.90;;;;;;5033768;28;20129;-63
2024/02/29 03:55:21;;;;;;;8.55;1.85;;;10.80;99.90;;;;;;5033711;28;20053;-63
2024/02/29 03:57:48;;;;;;;6.50;1.35;;;10.80;99.90;;;;;;5033634;28;20125;-63
2024/02/29 04:00:15;;;;;;;10.20;2.20;;;10.80;99.90;;;;;;5033894;28;20069;-63
2024/02/29 04:02:42;;;;;;;8.63;1.50;;;10.80;99.90;;;;;;5033786;28;20052;-64
2024/02/29 04:05:09;;;;;;;10.35;1.75;;;10.80;99.90;;;;;;5033495;28;20068;-63
2024/02/29 04:07:36;;;;;;;13.05;2.25;;;10.80;99.90;;;;;;5033609;28;20159;-63
2024/02/29 04:10:03;;;;;;;13.32;1.70;;;10.80;99.90;;;;;;5033932;28;20053;-62
2024/02/29 04:12:30;;;;;;;7.13;1.45;;;10.90;99.90;;;;;;5033859;28;20049;-63
2024/02/29 04:14:57;;;;;;;8.52;1.70;;;10.80;99.90;;;;;;5033586;28;20053;-62
2024/02/29 04:17:24;;;;;;;7.75;1.67;;;10.90;99.90;;;;;;5033656;28;20124;-64
2024/02/29 04:19:50;;;;;;;9.85;1.67;;;10.80;99.90;;;;;;5033487;28;20044;-62
2024/02/29 04:22:17;;;;;;;8.77;1.77;;;10.80;99.90;;;;;;5033652;28;20421;-62
2024/02/29 04:24:44;;;;;;;9.48;1.65;;;10.90;99.90;;;;;;5033347;28;20107;-62
2024/02/29 04:27:11;;;;;;;7.45;1.88;;;10.80;99.90;;;;;;5033378;28;20064;-62
2024/02/29 04:29:38;;;;;;;8.95;1.63;;;10.80;99.90;;;;;;5032616;28;20095;-62
2024/02/29 04:32:04;;;;;;;7.00;1.50;;;10.80;99.90;;;;;;5033244;28;20045;-62
2024/02/29 04:34:31;;;;;;;8.73;1.73;;;10.80;99.90;;;;;;5033364;28;20509;-63
2024/02/29 04:36:58;;;;;;;8.63;1.70;;;10.80;99.90;;;;;;5033451;28;20041;-63
2024/02/29 04:39:25;;;;;;;10.93;2.38;;;10.70;99.90;;;;;;5033162;28;20146;-62
2024/02/29 04:41:52;;;;;;;8.40;1.70;;;10.80;99.90;;;;;;5033480;28;20080;-63
2024/02/29 04:44:18;;;;;;;9.07;1.42;;;10.70;99.90;;;;;;5033286;28;20497;-63
2024/02/29 04:46:45;;;;;;;8.48;1.33;;;10.70;99.90;;;;;;5034165;28;20033;-63
2024/02/29 04:49:12;;;;;;;8.70;1.58;;;10.70;99.90;;;;;;5037349;28;20041;-63
2024/02/29 04:51:39;;;;;;;8.82;1.63;;;10.60;99.90;;;;;;5037332;28;20114;-63
2024/02/29 04:54:06;;;;;;;7.68;1.58;;;10.60;99.90;;;;;;5037285;28;20124;-62
2024/02/29 04:56:35;;;;;;;5.20;1.10;;;10.60;99.90;;;;;;5037227;28;20037;-63
2024/02/29 04:59:04;;;;;;;7.72;1.60;;;10.50;99.90;;;;;;5035988;28;20041;-62
2024/02/29 05:01:31;;;;;;;8.40;1.50;;;10.50;99.90;;;;;;5037132;28;20041;-62
2024/02/29 05:03:58;;;;;;;7.50;1.63;;;10.50;99.90;;;;;;5036871;28;20126;-62
2024/02/29 05:06:25;;;;;;;8.52;1.40;;;10.50;99.90;;;;;;5036682;28;20079;-62
2024/02/29 05:08:52;;;;;;;7.35;1.63;;;10.50;99.90;;;;;;5035518;28;20475;-63
2024/02/29 05:11:18;;;;;;;11.32;1.90;;;10.50;99.90;;;;;;5036182;28;20045;-62
2024/02/29 05:13:45;;;;;;;6.65;1.55;;;10.50;99.90;;;;;;5036566;28;20065;-62
2024/02/29 05:16:12;;;;;;;7.93;1.50;;;10.60;99.90;;;;;;5036171;28;20049;-63
2024/02/29 05:18:39;;;;;;;7.53;1.27;;;10.60;99.90;;;;;;5036721;28;20119;-63
2024/02/29 05:21:06;;;;;;;6.28;1.20;;;10.60;99.90;;;;;;5036641;28;20037;-63
2024/02/29 05:23:33;;;;;;;8.02;1.55;;;10.60;99.90;;;;;;5036586;28;20045;-63
2024/02/29 05:26:00;;;;;;;5.97;1.35;;;10.50;99.90;;;;;;5036843;28;20076;-62
2024/02/29 05:28:27;;;;;;;5.10;1.10;;;10.50;99.90;;;;;;5036493;28;20041;-63
2024/02/29 05:30:53;;;;;;;5.85;1.30;;;10.50;99.90;;;;;;5036608;28;20045;-63
2024/02/29 05:33:20;;;;;;;7.18;1.60;;;10.50;99.90;;;;;;5036547;28;20045;-63
2024/02/29 05:35:50;;;;;;;9.07;1.77;;;10.50;99.90;;;;;;5035862;28;20048;-66
2024/02/29 05:38:17;;;;;;;7.53;1.70;;;10.40;99.90;;;;;;5036334;28;20418;-61
2024/02/29 05:40:44;;;;;;;9.48;2.00;;;10.50;99.90;;;;;;5036453;28;20045;-62
2024/02/29 05:43:11;;;;;;;9.60;1.67;;;10.40;99.90;;;;;;5036460;28;20399;-62
2024/02/29 05:45:38;;;;;;;9.88;1.98;;;10.50;99.90;;;;;;5036458;28;20060;-62
2024/02/29 05:48:04;;;;;;;10.75;2.25;;;10.50;99.90;;;;;;5036569;28;20037;-62
2024/02/29 05:50:31;;;;;;;9.55;2.53;;;10.40;99.90;;;;;;5036202;28;20046;-64
2024/02/29 05:53:01;;;;;;;9.07;1.77;;;10.50;99.90;;;;;;5036178;28;20237;-62
2024/02/29 05:55:28;;;;;;;11.32;1.73;;;10.50;99.90;;;;;;5035870;28;20045;-62
2024/02/29 05:57:55;;;;;;;11.32;2.20;;;10.50;99.90;;;;;;5035237;28;20120;-62
2024/02/29 06:00:22;;;;;;;11.50;1.83;;;10.40;99.90;;;;;;5035681;28;20041;-61
2024/02/29 06:02:49;;;;;;;11.13;2.10;;;10.40;99.90;;;;;;5036076;28;20041;-62
2024/02/29 06:05:18;;;;;;;16.33;2.38;;;10.50;99.90;;;;;;5035415;28;20052;-62
2024/02/29 06:07:45;;;;;;;12.18;1.95;;;10.40;99.90;;;;;;5035933;28;20041;-62
2024/02/29 06:10:12;;;;;;;10.55;2.22;;;10.50;99.90;;;;;;5036400;28;20402;-61
2024/02/29 06:12:39;;;;;;;14.60;1.65;;;10.50;99.90;;;;;;5036217;28;20052;-62
2024/02/29 06:15:06;;;;;;;12.10;2.08;;;10.50;99.90;;;;;;5035838;28;20533;-62
2024/02/29 06:17:36;;;;;;;9.18;1.70;;;10.50;99.90;;;;;;5036196;28;20091;-62
2024/02/29 06:20:04;;;;;;;12.07;1.92;;;10.50;99.90;;;;;;5035698;28;20140;-62
2024/02/29 06:22:30;;;;;;;7.18;1.75;;;10.50;99.90;;;;;;5035833;28;20177;-62
2024/02/29 06:24:57;;;;;;;11.32;1.95;;;10.50;99.90;;;;;;5035882;28;20092;-62
2024/02/29 06:27:26;;;;;;;13.75;1.70;;;10.60;99.90;;;;;;5036174;28;20099;-62
2024/02/29 06:29:52;;;;;;;11.82;2.65;;;10.50;99.90;;;;;;5036029;28;20041;-62
2024/02/29 06:32:19;;;;;;;8.82;1.60;;;10.50;99.90;;;;;;5034752;28;20046;-62
2024/02/29 06:34:48;;;;;;;9.70;2.10;;;10.60;99.90;;;;;;5035900;28;20508;-63
2024/02/29 06:37:15;;;;;;;8.40;1.83;;;10.60;99.90;;;;;;5035807;28;20045;-63
2024/02/29 06:39:42;;;;;;;7.70;1.80;;;10.50;99.90;;;;;;5035491;28;20073;-62
2024/02/29 06:42:09;;;;;;;8.18;1.80;;;10.50;99.90;;;;;;5035769;28;20038;-62
2024/02/29 06:44:35;;;;;;;9.40;1.73;;;10.50;99.90;;;;;;5035615;28;20433;-62
2024/02/29 06:47:02;;;;;;;9.80;2.08;;;10.40;99.90;;;;;;5034271;28;20044;-62
2024/02/29 06:49:29;;;;;;;6.72;1.60;;;10.40;99.90;;;;;;5035294;28;20045;-62
2024/02/29 06:51:56;;;;;;;7.28;1.45;;;10.40;99.90;;;;;;5035706;28;20120;-62
2024/02/29 06:54:23;;;;;;;9.00;2.13;;;10.30;99.90;;;;;;5035753;28;20095;-62
2024/02/29 06:56:50;;;;;;;9.75;2.00;;;10.40;99.90;;;;;;5035187;28;20128;-63
2024/02/29 06:59:17;;;;;;;5.68;1.25;;;10.40;99.90;;;;;;5035068;28;20041;-64
2024/02/29 07:01:44;;;;;;;7.95;1.73;;;10.30;99.90;;;;;;5035327;28;20065;-61
2024/02/29 07:04:11;;;;;;;5.55;1.38;;;10.40;99.90;;;;;;5035055;28;20041;-64
2024/02/29 07:06:38;;;;;;;6.13;1.30;;;10.30;99.90;;;;;;5034892;28;20386;-64
2024/02/29 07:09:04;;;;;;;6.40;1.17;;;10.40;99.90;;;;;;5034974;28;20045;-62
2024/02/29 07:11:31;;;;;;;8.70;1.42;;;10.40;99.90;;;;;;5033523;28;20446;-61
2024/02/29 07:13:58;;;;;;;4.03;0.90;;;10.40;99.90;;;;;;5034828;28;20486;-61
2024/02/29 07:16:25;;;;;;;5.22;1.08;;;10.40;99.90;;;;;;5034387;28;20046;-61
2024/02/29 07:18:52;;;;;;;5.80;1.13;;;10.40;99.90;;;;;;5034750;28;20479;-61
2024/02/29 07:21:19;;;;;;;5.20;1.13;;;10.40;99.90;;;;;;5034447;28;20069;-61
2024/02/29 07:23:45;;;;;;;4.90;1.00;;;10.40;99.90;;;;;;5034959;28;20037;-62
2024/02/29 07:26:12;;;;;;;5.22;1.08;;;10.50;99.90;;;;;;5034483;28;20467;-61
2024/02/29 07:28:39;;;;;;;3.97;0.90;;;10.50;99.90;;;;;;5034477;28;20099;-61
2024/02/29 07:31:06;;;;;;;5.13;1.00;;;10.50;99.90;;;;;;5034515;28;20049;-61
2024/02/29 07:33:35;;;;;;;6.65;1.33;;;10.50;99.90;;;;;;5034536;28;20084;-61
2024/02/29 07:36:02;;;;;;;9.77;1.20;;;10.50;99.90;;;;;;5034536;28;20092;-61
2024/02/29 07:38:29;;;;;;;5.25;1.27;;;10.50;99.90;;;;;;5034476;28;20049;-61
2024/02/29 07:40:55;;;;;;;5.90;1.45;;;10.50;99.90;;;;;;5034343;28;20041;-61
2024/02/29 07:43:22;;;;;;;4.97;1.25;;;10.50;99.90;;;;;;5034529;28;20040;-63
2024/02/29 07:45:50;;;;;;;3.97;1.00;;;10.60;99.90;;;;;;5034184;28;20039;-63
2024/02/29 07:48:16;;;;;;;4.72;1.05;;;10.60;99.90;;;;;;5034367;28;20045;-62
2024/02/29 07:50:43;;;;;;;6.95;1.20;;;10.60;99.90;;;;;;5033740;28;20051;-63
2024/02/29 07:53:10;;;;;;;5.85;1.15;;;10.60;99.90;;;;;;5034145;28;20052;-63
2024/02/29 07:55:37;;;;;;;5.60;1.20;;;10.70;99.90;;;;;;5034037;28;20120;-62
2024/02/29 07:58:05;;;;;;;3.65;1.00;;;10.70;99.90;;;;;;5034311;28;20053;-62
2024/02/29 08:00:32;;;;;;;4.55;1.00;;;10.80;99.90;;;;;;5033809;28;20034;-62
2024/02/29 08:02:59;;;;;;;4.68;1.10;;;10.70;99.90;;;;;;5033209;28;20056;-62
2024/02/29 08:05:25;;;;;;;4.32;0.98;;;10.80;99.90;;;;;;5029433;28;20117;-63
2024/02/29 08:07:52;;;;;;;3.60;0.88;;;10.80;99.90;;;;;;5013599;28;20049;-62
2024/02/29 08:10:19;;;;;;;5.07;0.90;;;10.70;99.90;;;;;;5013559;28;20038;-63
2024/02/29 08:12:46;;;;;;;7.32;1.08;;;10.80;99.90;;;;;;5032004;28;20046;-62
2024/02/29 08:15:13;;;;;;;4.55;1.25;;;10.80;99.90;;;;;;5033167;28;20053;-62
2024/02/29 08:17:40;;;;;;;2.58;1.00;;;10.80;99.90;;;;;;5033550;28;20053;-62
2024/02/29 08:20:07;;;;;;;7.18;1.08;;;10.80;99.90;;;;;;5033341;28;20431;-63
2024/02/29 08:22:34;;;;;;;3.90;1.20;;;10.90;99.90;;;;;;5032678;28;20041;-63
2024/02/29 08:25:01;;;;;;;3.33;0.77;;;11.00;99.90;;;;;;5033077;28;20045;-62
2024/02/29 08:27:28;;;;;;;6.00;0.93;;;11.00;99.90;;;;;;5031719;28;20041;-63
2024/02/29 08:29:55;;;;;;;2.85;0.80;;;10.90;99.90;;;;;;5033170;28;20129;-63
2024/02/29 08:32:22;;;;;;;4.18;0.70;;;11.00;99.90;;;;;;5033021;28;20038;-64
2024/02/29 08:34:49;;;;;;;2.13;0.70;;;11.00;99.90;;;;;;5032755;28;20045;-63
2024/02/29 08:37:16;;;;;;;4.82;0.80;;;11.00;99.90;;;;;;5032591;28;20052;-63
2024/02/29 08:39:43;;;;;;;5.13;1.00;;;11.10;99.90;;;;;;5032953;28;20045;-62
2024/02/29 08:42:09;;;;;;;6.45;1.30;;;11.10;99.90;;;;;;5031615;28;20037;-63
2024/02/29 08:44:36;;;;;;;2.30;0.63;;;11.10;99.90;;;;;;5032937;28;20038;-63
2024/02/29 08:47:04;;;;;;;2.58;0.80;;;11.10;99.90;;;;;;5043830;28;20041;-62
2024/02/29 08:49:31;;;;;;;2.92;1.13;;;11.20;99.90;;;;;;5052584;28;20122;-63
2024/02/29 08:51:58;;;;;;;6.05;1.25;;;11.10;99.90;;;;;;5052315;28;20123;-62
2024/02/29 08:54:25;;;;;;;4.82;0.93;;;11.10;99.90;;;;;;5053183;28;20545;-62
2024/02/29 08:56:52;;;;;;;6.25;1.17;;;11.10;99.90;;;;;;5052039;28;20478;-62
2024/02/29 08:59:19;;;;;;;3.72;0.90;;;11.10;99.90;;;;;;5052614;28;20037;-61
2024/02/29 09:01:45;;;;;;;5.63;0.82;;;11.10;99.90;;;;;;5051970;28;20378;-62
2024/02/29 09:04:12;;;;;;;6.00;0.93;;;11.10;99.90;;;;;;5052539;28;20043;-62
2024/02/29 09:06:39;;;;;;;4.78;0.93;;;11.20;99.90;;;;;;5051093;28;20129;-62
2024/02/29 09:09:08;;;;;;;2.85;0.60;;;11.20;99.90;;;;;;5030888;28;20041;-62
2024/02/29 09:11:34;;;;;;;3.50;0.60;;;11.20;99.90;;;;;;5031227;28;20156;-63
2024/02/29 09:14:01;;;;;;;3.10;0.85;;;11.20;99.90;;;;;;5032369;28;20375;-63
2024/02/29 09:16:28;;;;;;;2.85;0.90;;;11.10;99.90;;;;;;5032063;28;20037;-64
2024/02/29 09:18:56;;;;;;;4.43;1.10;;;11.10;99.90;;;;;;5032725;28;20041;-63
2024/02/29 09:21:26;;;;;;;5.43;0.82;;;11.10;99.90;;;;;;5033335;28;20116;-64
2024/02/29 09:23:53;;;;;;;6.00;1.23;;;11.20;99.90;;;;;;5031965;28;20479;-64
2024/02/29 09:26:20;;;;;;;3.33;0.82;;;11.20;99.90;;;;;;5031152;28;20045;-63
2024/02/29 09:28:47;;;;;;;3.10;0.73;;;11.20;99.90;;;;;;5032790;28;20034;-63
2024/02/29 09:31:14;;;;;;;4.45;0.98;;;11.20;99.90;;;;;;5031823;28;20061;-63
2024/02/29 09:33:41;;;;;;;5.43;0.95;;;11.20;99.90;;;;;;5035505;28;20041;-63
2024/02/29 09:36:08;;;;;;;6.15;1.10;;;11.20;99.90;;;;;;5035528;28;20483;-64
2024/02/29 09:38:35;;;;;;;5.68;1.63;;;11.10;99.90;;;;;;5037151;28;20097;-63
2024/02/29 09:41:02;;;;;;;6.55;1.30;;;11.10;99.90;;;;;;5036464;28;20045;-64
2024/02/29 09:43:49;;;;;;;8.50;1.30;;;11.10;99.90;;;;;;5036985;28;20152;-63
2024/02/29 09:46:16;;;;;;;8.05;1.35;;;11.10;99.90;;;;;;5035973;28;20049;-64
2024/02/29 09:48:43;;;;;;;10.18;1.58;;;11.10;99.90;;;;;;5036517;28;20040;-64
2024/02/29 09:51:09;;;;;;;4.50;1.13;;;11.10;99.90;;;;;;5036852;28;20045;-60
2024/02/29 09:53:39;;;;;;;5.72;1.63;;;11.00;99.90;;;;;;5036076;28;20046;-60
2024/02/29 09:56:06;;;;;;;3.58;0.95;;;11.00;99.90;;;;;;5035520;28;20037;-60
2024/02/29 09:58:33;;;;;;;4.22;0.88;;;11.00;99.90;;;;;;5035734;28;20048;-61
2024/02/29 10:00:59;;;;;;;4.65;0.90;;;10.90;99.90;;;;;;5035564;28;20115;-60
2024/02/29 10:03:27;;;;;;;3.72;0.80;;;10.90;99.90;;;;;;5035455;28;20116;-62
2024/02/29 10:05:54;;;;;;;3.20;0.73;;;11.00;99.90;;;;;;5034551;28;20386;-60
2024/02/29 10:08:20;;;;;;;3.72;0.77;;;11.10;99.90;;;;;;5034724;28;20041;-60
2024/02/29 10:10:47;;;;;;;2.42;0.63;;;11.00;99.90;;;;;;5035872;28;20041;-60
2024/02/29 10:13:17;;;;;;;3.55;0.70;;;11.00;99.90;;;;;;5035873;28;20476;-60
2024/02/29 10:15:44;;;;;;;4.47;0.82;;;11.10;99.90;;;;;;5035326;28;20140;-61
2024/02/29 10:18:11;;;;;;;4.70;0.80;;;11.00;99.90;;;;;;5035688;28;20053;-61
2024/02/29 10:20:38;;;;;;;4.15;0.70;;;11.00;99.90;;;;;;5035427;28;20041;-61
2024/02/29 10:23:05;;;;;;;2.88;0.70;;;11.00;99.90;;;;;;5035626;28;20079;-61
2024/02/29 10:25:31;;;;;;;3.80;1.02;;;11.00;99.90;;;;;;5035506;28;20510;-61
2024/02/29 10:27:58;;;;;;;2.63;0.77;;;11.10;99.90;;;;;;5035733;28;20045;-61
2024/02/29 10:30:25;;;;;;;4.75;0.90;;;11.00;99.90;;;;;;5035111;28;20076;-61
2024/02/29 10:32:52;;;;;;;6.40;0.90;;;11.00;99.90;;;;;;5035086;28;20418;-61
2024/02/29 10:35:19;;;;;;;5.57;0.90;;;11.10;99.90;;;;;;5034703;28;20057;-64
2024/02/29 10:37:46;;;;;;;4.90;1.08;;;11.20;99.90;;;;;;5034687;28;20042;-64
2024/02/29 10:40:12;;;;;;;2.00;0.45;;;11.20;99.90;;;;;;5042448;28;20057;-64
2024/02/29 10:42:39;;;;;;;3.25;0.80;;;11.30;99.90;;;;;;5035334;28;20052;-63
2024/02/29 10:45:06;;;;;;;1.88;0.52;;;11.30;99.90;;;;;;5039734;28;20603;-63
2024/02/29 10:47:33;;;;;;;3.13;0.93;;;11.30;99.90;;;;;;5046027;28;20045;-64
2024/02/29 10:50:01;;;;;;;2.25;0.80;;;11.40;99.90;;;;;;5037579;28;20464;-63
2024/02/29 10:52:28;;;;;;;3.67;0.80;;;11.50;99.90;;;;;;5053917;28;20051;-63
2024/02/29 10:54:55;;;;;;;1.80;0.82;;;11.60;99.90;;;;;;5052547;28;20051;-63
2024/02/29 10:57:22;;;;;;;3.58;1.15;;;11.60;99.90;;;;;;5052558;28;20047;-63
2024/02/29 10:59:48;;;;;;;1.90;0.57;;;11.60;99.90;;;;;;5055391;28;20040;-65
2024/02/29 11:02:15;;;;;;;1.95;0.50;;;11.60;99.90;;;;;;5049596;28;20124;-65
2024/02/29 11:04:42;;;;;;;2.70;0.60;;;11.60;99.90;;;;;;5038522;28;20037;-64
2024/02/29 11:07:09;;;;;;;3.10;0.93;;;11.60;99.90;;;;;;5035416;28;20112;-65
2024/02/29 11:09:36;;;;;;;1.50;0.50;;;11.50;99.90;;;;;;5035339;28;20038;-64
2024/02/29 11:12:03;;;;;;;2.30;0.70;;;11.50;99.90;;;;;;5034679;28;20041;-64
2024/02/29 11:14:30;;;;;;;2.38;0.70;;;11.60;99.90;;;;;;5053974;28;20139;-64
2024/02/29 11:16:57;;;;;;;2.38;0.60;;;11.60;99.90;;;;;;5054683;28;20545;-64
2024/02/29 11:19:24;;;;;;;4.25;0.80;;;11.60;99.90;;;;;;5054202;28;20049;-64
2024/02/29 11:21:50;;;;;;;2.42;0.70;;;11.70;99.90;;;;;;5053541;28;20041;-64
2024/02/29 11:24:18;;;;;;;2.90;0.73;;;11.70;99.90;;;;;;5054965;28;20057;-65
2024/02/29 11:26:45;;;;;;;2.08;0.40;;;11.70;99.90;;;;;;5054582;28;20464;-65
2024/02/29 11:29:12;;;;;;;1.85;0.52;;;11.70;99.90;;;;;;5054579;28;20049;-64
2024/02/29 11:31:38;;;;;;;2.35;0.40;;;11.70;99.90;;;;;;5054663;28;20049;-65
2024/02/29 11:34:05;;;;;;;1.77;0.57;;;11.70;99.90;;;;;;5054280;28;20411;-65
2024/02/29 11:36:33;;;;;;;1.90;0.60;;;11.70;99.90;;;;;;5054501;28;20102;-65
2024/02/29 11:39:00;;;;;;;2.08;0.50;;;11.70;99.90;;;;;;5054767;28;20137;-65
2024/02/29 11:41:27;;;;;;;1.65;0.38;;;11.70;99.90;;;;;;5053163;28;20118;-64
2024/02/29 11:43:54;;;;;;;2.20;0.55;;;11.80;99.90;;;;;;5054856;28;20492;-65
2024/02/29 11:46:21;;;;;;;1.88;0.45;;;11.80;99.90;;;;;;5054200;28;20111;-64
2024/02/29 11:48:48;;;;;;;1.20;0.60;;;11.80;99.90;;;;;;5053962;28;20041;-64
2024/02/29 11:51:15;;;;;;;1.95;0.55;;;11.80;99.90;;;;;;5054459;28;20065;-65
2024/02/29 11:53:43;;;;;;;0.85;0.45;;;11.80;99.90;;;;;;5053997;28;20049;-65
2024/02/29 11:56:10;;;;;;;1.52;0.55;;;11.80;99.90;;;;;;5052910;28;20041;-64
2024/02/29 11:58:42;;;;;;;1.40;0.40;;;11.80;99.90;;;;;;5025207;28;20038;-65
2024/02/29 12:01:12;;;;;;;1.00;0.40;;;11.80;99.90;;;;;;5033796;28;20049;-65
2024/02/29 12:03:39;;;;;;;1.48;0.50;;;11.90;99.90;;;;;;5033914;28;20493;-64
2024/02/29 12:06:06;;;;;;;1.30;0.50;;;11.90;99.90;;;;;;5047755;28;20073;-65
2024/02/29 12:08:33;;;;;;;1.77;0.52;;;11.70;99.90;;;;;;5052556;28;20470;-65
2024/02/29 12:11:00;;;;;;;3.08;0.80;;;11.70;99.90;;;;;;5053517;28;20041;-65
2024/02/29 12:13:27;;;;;;;4.63;0.70;;;11.50;99.90;;;;;;5043598;28;20124;-64
2024/02/29 12:15:53;;;;;;;3.10;1.20;;;11.40;99.90;;;;;;5033285;28;20076;-65
2024/02/29 12:18:21;;;;;;;2.63;1.20;;;11.40;99.90;;;;;;5033584;28;20108;-64
2024/02/29 12:20:48;;;;;;;5.43;1.90;;;11.30;99.90;;;;;;5033747;28;20041;-64
2024/02/29 12:23:15;;;;;;;3.28;1.40;;;11.30;99.90;;;;;;5033755;28;20044;-64
2024/02/29 12:25:45;;;;;;;2.53;0.70;;;11.30;99.90;;;;;;5034037;28;20042;-62
2024/02/29 12:28:12;;;;;;;2.03;0.65;;;11.20;99.90;;;;;;5033435;28;20041;-62
2024/02/29 12:30:38;;;;;;;1.30;0.50;;;11.00;99.90;;;;;;5033630;28;20501;-62
2024/02/29 12:33:05;;;;;;;3.45;0.40;;;10.90;99.90;;;;;;5033927;28;20538;-62
2024/02/29 12:35:32;;;;;;;1.10;0.40;;;10.70;99.90;;;;;;5033494;28;20046;-61
2024/02/29 12:38:02;;;;;;;2.75;0.60;;;10.60;99.90;;;;;;5053324;28;20041;-61
2024/02/29 12:40:32;;;;;;;1.23;0.50;;;10.50;99.90;;;;;;5052145;28;20037;-61
2024/02/29 12:42:59;;;;;;;2.13;0.70;;;10.40;99.90;;;;;;5031880;28;20128;-61